Marigola — IBEL — position and weather

sailwx.info

Track history (hours):
 
Tides and Currents Weather Stations Pressure Air Temp Water Temp Dewpoint Dewpoint Depression Visibility Wind Speed Wind Dir Waves Ship Positions

Marigola

Last reported at 2014-Aug-25 03:33 UTC. Time now 2014-Aug-29 22:30 UTC.
Position N 27°26' W 083°03'.

Length 145 m; draft 6.5 m.

Type: Ship (hazmat cat A). MMSI: 247567000.

Date/timePositionNaut miles runAvg speedWind from/ knotsBaromVisibWave heightAir tempDewpointWater temp
2014-Aug-25 03:33N 27°26' W 083°03'1212.0
2014-Aug-25 02:33N 27°36' W 082°56'1212.2
2014-Aug-25 01:33N 27°36' W 082°43'1312.6
2014-Aug-25 00:34N 27°45' W 082°32'11 9.8
2014-Aug-24 23:26N 27°54' W 082°25'0 0.0
2014-Aug-24 22:26N 27°54' W 082°25'1 0.1
2014-Aug-24 01:33N 27°53' W 082°26'9 9.0
2014-Aug-24 00:33N 27°46' W 082°31'1110.5
2014-Aug-23 23:32N 27°37' W 082°39'10 9.8
2014-Aug-23 22:33N 27°36' W 082°50'1110.8
2014-Aug-23 21:34N 27°34' W 083°02'  
Track history (hours):
 
Tides and Currents Weather Stations Pressure Air Temp Water Temp Dewpoint Dewpoint Depression Visibility Wind Speed Wind Dir Waves Ship Positions

Marigola

Last reported at 2014-Aug-25 03:33 UTC. Time now 2014-Aug-29 22:30 UTC.
Position N 27°26' W 083°03'.

Length 145 m; draft 6.5 m.

Type: Ship (hazmat cat A). MMSI: 247567000.

Date/timePositionNaut miles runAvg speedWind from/ knotsBaromVisibWave heightAir tempDewpointWater temp
2014-Aug-25 03:33N 27°26' W 083°03'1212.0
2014-Aug-25 02:33N 27°36' W 082°56'1212.2
2014-Aug-25 01:33N 27°36' W 082°43'1312.6
2014-Aug-25 00:34N 27°45' W 082°32'11 9.8
2014-Aug-24 23:26N 27°54' W 082°25'0 0.0
2014-Aug-24 22:26N 27°54' W 082°25'1 0.1
2014-Aug-24 01:33N 27°53' W 082°26'9 9.0
2014-Aug-24 00:33N 27°46' W 082°31'1110.5
2014-Aug-23 23:32N 27°37' W 082°39'10 9.8
2014-Aug-23 22:33N 27°36' W 082°50'1110.8
2014-Aug-23 21:34N 27°34' W 083°02'  

Dump ship's entire track history